sensor_id;sensor_type;location;lat;lon;timestamp;temperature;humidity
57030;DHT22;42920;45.306;20.448;2022-12-18T00:01:00;128.40;2252.80
57030;DHT22;42920;45.306;20.448;2022-12-18T00:03:34;128.40;2252.80
57030;DHT22;42920;45.306;20.448;2022-12-18T00:06:00;128.40;2252.80
57030;DHT22;42920;45.306;20.448;2022-12-18T00:08:26;128.40;2252.80
57030;DHT22;42920;45.306;20.448;2022-12-18T00:10:52;128.50;2252.80
57030;DHT22;42920;45.306;20.448;2022-12-18T00:13:18;128.50;2252.80
57030;DHT22;42920;45.306;20.448;2022-12-18T00:15:44;128.50;2252.80
57030;DHT22;42920;45.306;20.448;2022-12-18T00:18:10;128.40;2252.80
57030;DHT22;42920;45.306;20.448;2022-12-18T00:20:39;128.40;2252.80
57030;DHT22;42920;45.306;20.448;2022-12-18T00:23:06;128.40;2252.80
57030;DHT22;42920;45.306;20.448;2022-12-18T00:25:35;128.40;2252.80
57030;DHT22;42920;45.306;20.448;2022-12-18T00:28:03;128.10;2252.80
57030;DHT22;42920;45.306;20.448;2022-12-18T00:30:29;103.20;2227.20
57030;DHT22;42920;45.306;20.448;2022-12-18T00:32:55;102.90;2227.20
57030;DHT22;42920;45.306;20.448;2022-12-18T00:35:21;128.00;2252.80
57030;DHT22;42920;45.306;20.448;2022-12-18T00:37:47;128.10;2252.80
57030;DHT22;42920;45.306;20.448;2022-12-18T00:40:12;128.00;2252.80
57030;DHT22;42920;45.306;20.448;2022-12-18T00:42:38;128.30;2252.80
57030;DHT22;42920;45.306;20.448;2022-12-18T00:45:27;128.20;2252.80
57030;DHT22;42920;45.306;20.448;2022-12-18T00:47:53;128.20;2252.80
57030;DHT22;42920;45.306;20.448;2022-12-18T00:50:19;128.10;2252.80
57030;DHT22;42920;45.306;20.448;2022-12-18T00:52:44;128.10;2252.80
57030;DHT22;42920;45.306;20.448;2022-12-18T00:55:11;128.10;2252.80
57030;DHT22;42920;45.306;20.448;2022-12-18T00:57:37;128.00;2252.80
57030;DHT22;42920;45.306;20.448;2022-12-18T01:00:03;103.30;2227.20
57030;DHT22;42920;45.306;20.448;2022-12-18T01:02:29;103.00;2227.20
57030;DHT22;42920;45.306;20.448;2022-12-18T01:04:54;103.20;2227.20
57030;DHT22;42920;45.306;20.448;2022-12-18T01:07:20;103.30;2227.20
57030;DHT22;42920;45.306;20.448;2022-12-18T01:09:46;103.20;2227.20
57030;DHT22;42920;45.306;20.448;2022-12-18T01:12:11;103.20;2227.20
57030;DHT22;42920;45.306;20.448;2022-12-18T01:14:37;103.10;2227.20
57030;DHT22;42920;45.306;20.448;2022-12-18T01:17:04;103.20;2227.20
57030;DHT22;42920;45.306;20.448;2022-12-18T01:19:30;103.20;2227.20
57030;DHT22;42920;45.306;20.448;2022-12-18T01:21:55;102.80;2227.20
57030;DHT22;42920;45.306;20.448;2022-12-18T01:24:21;103.00;2227.20
57030;DHT22;42920;45.306;20.448;2022-12-18T01:26:47;103.10;2227.20
57030;DHT22;42920;45.306;20.448;2022-12-18T01:29:13;103.10;2227.20
57030;DHT22;42920;45.306;20.448;2022-12-18T01:31:38;103.20;2227.20
57030;DHT22;42920;45.306;20.448;2022-12-18T01:34:05;103.20;2227.20
57030;DHT22;42920;45.306;20.448;2022-12-18T01:36:33;103.20;2227.20
57030;DHT22;42920;45.306;20.448;2022-12-18T01:39:01;103.10;2227.20
57030;DHT22;42920;45.306;20.448;2022-12-18T01:41:28;103.10;2227.20
57030;DHT22;42920;45.306;20.448;2022-12-18T01:44:57;103.10;2227.20
57030;DHT22;42920;45.306;20.448;2022-12-18T01:49:52;103.10;2227.20
57030;DHT22;42920;45.306;20.448;2022-12-18T01:52:19;103.10;2227.20
57030;DHT22;42920;45.306;20.448;2022-12-18T01:54:47;103.00;2227.20
57030;DHT22;42920;45.306;20.448;2022-12-18T01:57:13;103.00;2227.20
57030;DHT22;42920;45.306;20.448;2022-12-18T01:59:39;103.00;2227.20
57030;DHT22;42920;45.306;20.448;2022-12-18T02:02:06;103.00;2227.20
57030;DHT22;42920;45.306;20.448;2022-12-18T02:04:33;103.10;2227.20
57030;DHT22;42920;45.306;20.448;2022-12-18T02:09:35;102.90;2227.20
57030;DHT22;42920;45.306;20.448;2022-12-18T02:12:07;102.90;2227.20
57030;DHT22;42920;45.306;20.448;2022-12-18T02:17:23;102.60;2227.20
57030;DHT22;42920;45.306;20.448;2022-12-18T02:20:21;102.60;2227.20
57030;DHT22;42920;45.306;20.448;2022-12-18T02:28:30;77.70;2227.20
57030;DHT22;42920;45.306;20.448;2022-12-18T02:30:59;77.60;2227.20
57030;DHT22;42920;45.306;20.448;2022-12-18T02:33:27;77.50;2227.20
57030;DHT22;42920;45.306;20.448;2022-12-18T02:35:55;102.40;2227.20
57030;DHT22;42920;45.306;20.448;2022-12-18T02:38:23;77.60;2227.20
57030;DHT22;42920;45.306;20.448;2022-12-18T02:40:51;102.40;2227.20
57030;DHT22;42920;45.306;20.448;2022-12-18T02:43:18;102.50;2227.20
57030;DHT22;42920;45.306;20.448;2022-12-18T02:45:57;102.60;2227.20
57030;DHT22;42920;45.306;20.448;2022-12-18T02:48:30;102.80;2227.20
57030;DHT22;42920;45.306;20.448;2022-12-18T02:51:07;102.80;2227.20
57030;DHT22;42920;45.306;20.448;2022-12-18T02:53:58;102.80;2227.20
57030;DHT22;42920;45.306;20.448;2022-12-18T02:56:33;102.80;2227.20
57030;DHT22;42920;45.306;20.448;2022-12-18T02:59:13;102.90;2227.20
57030;DHT22;42920;45.306;20.448;2022-12-18T03:01:45;102.90;2227.20
57030;DHT22;42920;45.306;20.448;2022-12-18T03:04:30;102.90;2227.20
57030;DHT22;42920;45.306;20.448;2022-12-18T03:06:59;102.90;2227.20
57030;DHT22;42920;45.306;20.448;2022-12-18T03:09:36;102.90;2227.20
57030;DHT22;42920;45.306;20.448;2022-12-18T03:12:29;102.60;2227.20
57030;DHT22;42920;45.306;20.448;2022-12-18T03:15:35;102.40;2227.20
57030;DHT22;42920;45.306;20.448;2022-12-18T03:18:06;102.50;2227.20
57030;DHT22;42920;45.306;20.448;2022-12-18T03:20:34;102.70;2227.20
57030;DHT22;42920;45.306;20.448;2022-12-18T03:23:13;102.60;2227.20
57030;DHT22;42920;45.306;20.448;2022-12-18T03:25:42;102.50;2227.20
57030;DHT22;42920;45.306;20.448;2022-12-18T03:28:13;102.50;2227.20
57030;DHT22;42920;45.306;20.448;2022-12-18T03:30:41;102.50;2227.20
57030;DHT22;42920;45.306;20.448;2022-12-18T03:33:14;102.40;2227.20
57030;DHT22;42920;45.306;20.448;2022-12-18T03:35:43;102.50;2227.20
57030;DHT22;42920;45.306;20.448;2022-12-18T03:38:10;102.40;2227.20
57030;DHT22;42920;45.306;20.448;2022-12-18T03:41:03;102.40;2227.20
57030;DHT22;42920;45.306;20.448;2022-12-18T03:43:52;102.40;2227.20
57030;DHT22;42920;45.306;20.448;2022-12-18T03:46:47;77.70;2227.20
57030;DHT22;42920;45.306;20.448;2022-12-18T03:49:43;77.60;2227.20
57030;DHT22;42920;45.306;20.448;2022-12-18T03:52:36;102.40;2227.20
57030;DHT22;42920;45.306;20.448;2022-12-18T03:55:00;102.50;2227.20
57030;DHT22;42920;45.306;20.448;2022-12-18T03:57:29;102.40;2227.20
57030;DHT22;42920;45.306;20.448;2022-12-18T03:59:59;77.60;2227.20
57030;DHT22;42920;45.306;20.448;2022-12-18T04:02:26;77.70;2227.20
57030;DHT22;42920;45.306;20.448;2022-12-18T04:04:57;102.50;2227.20
57030;DHT22;42920;45.306;20.448;2022-12-18T04:07:24;102.50;2227.20
57030;DHT22;42920;45.306;20.448;2022-12-18T04:09:50;102.60;2227.20
57030;DHT22;42920;45.306;20.448;2022-12-18T04:12:18;102.60;2227.20
57030;DHT22;42920;45.306;20.448;2022-12-18T04:14:43;102.60;2227.20
57030;DHT22;42920;45.306;20.448;2022-12-18T04:17:09;102.60;2227.20
57030;DHT22;42920;45.306;20.448;2022-12-18T04:19:34;102.60;2227.20
57030;DHT22;42920;45.306;20.448;2022-12-18T04:22:00;102.70;2227.20
57030;DHT22;42920;45.306;20.448;2022-12-18T04:24:26;102.60;2227.20
57030;DHT22;42920;45.306;20.448;2022-12-18T04:26:51;102.70;2227.20
57030;DHT22;42920;45.306;20.448;2022-12-18T04:29:17;102.70;2227.20
57030;DHT22;42920;45.306;20.448;2022-12-18T04:31:43;102.60;2227.20
57030;DHT22;42920;45.306;20.448;2022-12-18T04:34:08;102.60;2227.20
57030;DHT22;42920;45.306;20.448;2022-12-18T04:36:34;102.50;2227.20
57030;DHT22;42920;45.306;20.448;2022-12-18T04:39:00;102.60;2227.20
57030;DHT22;42920;45.306;20.448;2022-12-18T04:41:25;102.40;2227.20
57030;DHT22;42920;45.306;20.448;2022-12-18T04:43:51;102.50;2227.20
57030;DHT22;42920;45.306;20.448;2022-12-18T04:46:17;102.50;2227.20
57030;DHT22;42920;45.306;20.448;2022-12-18T04:48:44;102.50;2227.20
57030;DHT22;42920;45.306;20.448;2022-12-18T04:51:10;102.50;2227.20
57030;DHT22;42920;45.306;20.448;2022-12-18T04:53:36;102.50;2227.20
57030;DHT22;42920;45.306;20.448;2022-12-18T04:56:06;102.60;2227.20
57030;DHT22;42920;45.306;20.448;2022-12-18T04:58:32;102.60;2227.20
57030;DHT22;42920;45.306;20.448;2022-12-18T05:00:58;102.60;2227.20
57030;DHT22;42920;45.306;20.448;2022-12-18T05:03:23;102.50;2227.20
57030;DHT22;42920;45.306;20.448;2022-12-18T05:05:49;102.50;2227.20
57030;DHT22;42920;45.306;20.448;2022-12-18T05:08:16;102.60;2227.20
57030;DHT22;42920;45.306;20.448;2022-12-18T05:10:41;102.60;2227.20
57030;DHT22;42920;45.306;20.448;2022-12-18T05:13:07;102.50;2227.20
57030;DHT22;42920;45.306;20.448;2022-12-18T05:15:33;102.40;2227.20
57030;DHT22;42920;45.306;20.448;2022-12-18T05:17:58;77.60;2227.20
57030;DHT22;42920;45.306;20.448;2022-12-18T05:20:24;77.50;2227.20
57030;DHT22;42920;45.306;20.448;2022-12-18T05:22:51;77.50;2227.20
57030;DHT22;42920;45.306;20.448;2022-12-18T05:25:17;77.50;2227.20
57030;DHT22;42920;45.306;20.448;2022-12-18T05:27:43;77.70;2227.20
57030;DHT22;42920;45.306;20.448;2022-12-18T05:30:10;77.70;2227.20
57030;DHT22;42920;45.306;20.448;2022-12-18T05:32:37;102.40;2227.20
57030;DHT22;42920;45.306;20.448;2022-12-18T05:35:04;102.40;2227.20
57030;DHT22;42920;45.306;20.448;2022-12-18T05:37:30;102.50;2227.20
57030;DHT22;42920;45.306;20.448;2022-12-18T05:39:56;102.50;2227.20
57030;DHT22;42920;45.306;20.448;2022-12-18T05:42:22;102.50;2227.20
57030;DHT22;42920;45.306;20.448;2022-12-18T05:44:47;102.40;2227.20
57030;DHT22;42920;45.306;20.448;2022-12-18T05:47:13;102.40;2227.20
57030;DHT22;42920;45.306;20.448;2022-12-18T05:49:39;102.40;2227.20
57030;DHT22;42920;45.306;20.448;2022-12-18T05:52:04;102.40;2227.20
57030;DHT22;42920;45.306;20.448;2022-12-18T05:54:30;102.40;2227.20
57030;DHT22;42920;45.306;20.448;2022-12-18T05:56:57;102.40;2227.20
57030;DHT22;42920;45.306;20.448;2022-12-18T05:59:22;102.40;2227.20
57030;DHT22;42920;45.306;20.448;2022-12-18T06:01:48;102.40;2227.20
57030;DHT22;42920;45.306;20.448;2022-12-18T06:04:14;102.40;2227.20
57030;DHT22;42920;45.306;20.448;2022-12-18T06:06:40;77.60;2227.20
57030;DHT22;42920;45.306;20.448;2022-12-18T06:09:05;77.60;2227.20
57030;DHT22;42920;45.306;20.448;2022-12-18T06:11:36;77.60;2227.20
57030;DHT22;42920;45.306;20.448;2022-12-18T06:14:02;77.50;2227.20
57030;DHT22;42920;45.306;20.448;2022-12-18T06:16:28;77.50;2227.20
57030;DHT22;42920;45.306;20.448;2022-12-18T06:19:04;77.50;2227.20
57030;DHT22;42920;45.306;20.448;2022-12-18T06:21:31;77.50;2227.20
57030;DHT22;42920;45.306;20.448;2022-12-18T06:23:57;77.40;2227.20
57030;DHT22;42920;45.306;20.448;2022-12-18T06:26:23;77.30;2227.20
57030;DHT22;42920;45.306;20.448;2022-12-18T06:28:49;77.20;2227.20
57030;DHT22;42920;45.306;20.448;2022-12-18T06:31:14;77.30;2227.20
57030;DHT22;42920;45.306;20.448;2022-12-18T06:33:40;77.40;2227.20
57030;DHT22;42920;45.306;20.448;2022-12-18T06:36:10;77.30;2227.20
57030;DHT22;42920;45.306;20.448;2022-12-18T06:38:40;77.30;2227.20
57030;DHT22;42920;45.306;20.448;2022-12-18T06:41:26;77.30;2227.20
57030;DHT22;42920;45.306;20.448;2022-12-18T06:43:52;77.30;2227.20
57030;DHT22;42920;45.306;20.448;2022-12-18T06:46:17;77.40;2227.20
57030;DHT22;42920;45.306;20.448;2022-12-18T06:48:47;77.50;2227.20
57030;DHT22;42920;45.306;20.448;2022-12-18T06:51:16;77.50;2227.20
57030;DHT22;42920;45.306;20.448;2022-12-18T06:53:42;77.60;2227.20
57030;DHT22;42920;45.306;20.448;2022-12-18T06:56:07;77.60;2227.20
57030;DHT22;42920;45.306;20.448;2022-12-18T06:58:33;77.70;2227.20
57030;DHT22;42920;45.306;20.448;2022-12-18T07:01:02;77.70;2227.20
57030;DHT22;42920;45.306;20.448;2022-12-18T07:03:45;77.70;2227.20
57030;DHT22;42920;45.306;20.448;2022-12-18T07:06:14;77.70;2227.20
57030;DHT22;42920;45.306;20.448;2022-12-18T07:08:40;77.70;2227.20
57030;DHT22;42920;45.306;20.448;2022-12-18T07:11:06;77.70;2227.20
57030;DHT22;42920;45.306;20.448;2022-12-18T07:13:31;77.70;2227.20
57030;DHT22;42920;45.306;20.448;2022-12-18T07:16:13;77.70;2227.20
57030;DHT22;42920;45.306;20.448;2022-12-18T07:18:39;77.70;2227.20
57030;DHT22;42920;45.306;20.448;2022-12-18T07:21:06;102.40;2227.20
57030;DHT22;42920;45.306;20.448;2022-12-18T07:23:33;77.70;2227.20
57030;DHT22;42920;45.306;20.448;2022-12-18T07:26:11;77.70;2227.20
57030;DHT22;42920;45.306;20.448;2022-12-18T07:28:37;77.70;2227.20
57030;DHT22;42920;45.306;20.448;2022-12-18T07:31:05;102.40;2227.20
57030;DHT22;42920;45.306;20.448;2022-12-18T07:33:32;102.40;2227.20
57030;DHT22;42920;45.306;20.448;2022-12-18T07:36:02;102.50;2227.20
57030;DHT22;42920;45.306;20.448;2022-12-18T07:38:29;102.50;2227.20
57030;DHT22;42920;45.306;20.448;2022-12-18T07:41:06;102.60;2227.20
57030;DHT22;42920;45.306;20.448;2022-12-18T07:43:33;102.50;2227.20
57030;DHT22;42920;45.306;20.448;2022-12-18T07:45:59;102.50;2227.20
57030;DHT22;42920;45.306;20.448;2022-12-18T07:48:24;102.60;2227.20
57030;DHT22;42920;45.306;20.448;2022-12-18T07:50:51;102.50;2227.20
57030;DHT22;42920;45.306;20.448;2022-12-18T07:53:16;102.50;2227.20
57030;DHT22;42920;45.306;20.448;2022-12-18T07:55:42;102.40;2227.20
57030;DHT22;42920;45.306;20.448;2022-12-18T07:58:08;102.50;2227.20
57030;DHT22;42920;45.306;20.448;2022-12-18T08:00:34;77.70;2227.20
57030;DHT22;42920;45.306;20.448;2022-12-18T08:03:00;77.40;2227.20
57030;DHT22;42920;45.306;20.448;2022-12-18T08:05:26;77.50;2227.20
57030;DHT22;42920;45.306;20.448;2022-12-18T08:07:52;77.70;2227.20
57030;DHT22;42920;45.306;20.448;2022-12-18T08:10:18;102.40;2227.20
57030;DHT22;42920;45.306;20.448;2022-12-18T08:12:44;77.60;2227.20
57030;DHT22;42920;45.306;20.448;2022-12-18T08:15:09;77.70;2227.20
57030;DHT22;42920;45.306;20.448;2022-12-18T08:17:35;102.50;2227.20
57030;DHT22;42920;45.306;20.448;2022-12-18T08:20:01;102.50;2227.20
57030;DHT22;42920;45.306;20.448;2022-12-18T08:22:27;102.60;2227.20
57030;DHT22;42920;45.306;20.448;2022-12-18T08:24:52;102.50;2227.20
57030;DHT22;42920;45.306;20.448;2022-12-18T08:27:18;102.60;2227.20
57030;DHT22;42920;45.306;20.448;2022-12-18T08:29:44;102.50;2227.20
57030;DHT22;42920;45.306;20.448;2022-12-18T08:32:10;102.60;2227.20
57030;DHT22;42920;45.306;20.448;2022-12-18T08:34:35;102.40;2227.20
57030;DHT22;42920;45.306;20.448;2022-12-18T08:37:01;102.50;2227.20
57030;DHT22;42920;45.306;20.448;2022-12-18T08:39:26;77.60;2227.20
57030;DHT22;42920;45.306;20.448;2022-12-18T08:41:52;102.40;2227.20
57030;DHT22;42920;45.306;20.448;2022-12-18T08:44:36;102.60;2227.20
57030;DHT22;42920;45.306;20.448;2022-12-18T08:47:06;102.80;2227.20
57030;DHT22;42920;45.306;20.448;2022-12-18T08:49:32;102.90;2227.20
57030;DHT22;42920;45.306;20.448;2022-12-18T08:51:58;102.80;2227.20
57030;DHT22;42920;45.306;20.448;2022-12-18T08:54:24;103.00;2227.20
57030;DHT22;42920;45.306;20.448;2022-12-18T08:56:50;103.10;2227.20
57030;DHT22;42920;45.306;20.448;2022-12-18T08:59:17;103.10;2227.20
57030;DHT22;42920;45.306;20.448;2022-12-18T09:01:43;103.00;2227.20
57030;DHT22;42920;45.306;20.448;2022-12-18T09:04:09;103.20;2227.20
57030;DHT22;42920;45.306;20.448;2022-12-18T09:06:35;103.10;2227.20
57030;DHT22;42920;45.306;20.448;2022-12-18T09:09:01;103.30;2227.20
57030;DHT22;42920;45.306;20.448;2022-12-18T09:11:28;103.20;2227.20
57030;DHT22;42920;45.306;20.448;2022-12-18T09:13:55;103.30;2227.20
57030;DHT22;42920;45.306;20.448;2022-12-18T09:16:22;103.10;2227.20
57030;DHT22;42920;45.306;20.448;2022-12-18T09:18:48;102.90;2227.20
57030;DHT22;42920;45.306;20.448;2022-12-18T09:21:16;102.90;2227.20
57030;DHT22;42920;45.306;20.448;2022-12-18T09:23:42;103.20;2227.20
57030;DHT22;42920;45.306;20.448;2022-12-18T09:26:07;103.30;2227.20
57030;DHT22;42920;45.306;20.448;2022-12-18T09:28:33;103.30;2227.20
57030;DHT22;42920;45.306;20.448;2022-12-18T09:31:04;128.20;2252.80
57030;DHT22;42920;45.306;20.448;2022-12-18T09:33:30;128.20;2252.80
57030;DHT22;42920;45.306;20.448;2022-12-18T09:35:55;128.30;2252.80
57030;DHT22;42920;45.306;20.448;2022-12-18T09:38:21;128.50;2252.80
57030;DHT22;42920;45.306;20.448;2022-12-18T09:40:53;128.60;2252.80
57030;DHT22;42920;45.306;20.448;2022-12-18T09:43:42;128.40;2252.80
57030;DHT22;42920;45.306;20.448;2022-12-18T09:46:19;128.20;2252.80
57030;DHT22;42920;45.306;20.448;2022-12-18T09:48:59;128.80;2252.80
57030;DHT22;42920;45.306;20.448;2022-12-18T09:51:43;153.60;2252.80
57030;DHT22;42920;45.306;20.448;2022-12-18T09:54:23;128.50;2252.80
57030;DHT22;42920;45.306;20.448;2022-12-18T09:56:51;153.60;2252.80
57030;DHT22;42920;45.306;20.448;2022-12-18T10:01:48;153.80;2252.80
57030;DHT22;42920;45.306;20.448;2022-12-18T10:04:14;153.90;2252.80
57030;DHT22;42920;45.306;20.448;2022-12-18T10:07:03;153.70;2252.80
57030;DHT22;42920;45.306;20.448;2022-12-18T10:12:32;153.70;2252.80
57030;DHT22;42920;45.306;20.448;2022-12-18T10:17:44;128.80;2252.80
57030;DHT22;42920;45.306;20.448;2022-12-18T10:20:33;153.60;2252.80
57030;DHT22;42920;45.306;20.448;2022-12-18T10:28:24;154.10;2252.80
57030;DHT22;42920;45.306;20.448;2022-12-18T10:30:51;154.30;2252.80
57030;DHT22;42920;45.306;20.448;2022-12-18T10:33:21;153.90;2252.80
57030;DHT22;42920;45.306;20.448;2022-12-18T10:35:50;154.20;2252.80
57030;DHT22;42920;45.306;20.448;2022-12-18T10:43:15;179.30;2252.80
57030;DHT22;42920;45.306;20.448;2022-12-18T10:45:42;179.20;2252.80
57030;DHT22;42920;45.306;20.448;2022-12-18T10:48:19;179.50;2252.80
57030;DHT22;42920;45.306;20.448;2022-12-18T10:50:48;179.30;2252.80
57030;DHT22;42920;45.306;20.448;2022-12-18T10:53:24;179.20;2252.80
57030;DHT22;42920;45.306;20.448;2022-12-18T10:55:52;154.20;2252.80
57030;DHT22;42920;45.306;20.448;2022-12-18T11:01:15;179.50;2252.80
57030;DHT22;42920;45.306;20.448;2022-12-18T11:06:13;154.30;2252.80
57030;DHT22;42920;45.306;20.448;2022-12-18T11:08:42;153.80;2252.80
57030;DHT22;42920;45.306;20.448;2022-12-18T11:11:23;153.70;2252.80
57030;DHT22;42920;45.306;20.448;2022-12-18T11:14:04;153.90;2252.80
57030;DHT22;42920;45.306;20.448;2022-12-18T11:16:36;154.20;2252.80
57030;DHT22;42920;45.306;20.448;2022-12-18T11:19:35;154.30;2252.80
57030;DHT22;42920;45.306;20.448;2022-12-18T11:22:16;154.30;2252.80
57030;DHT22;42920;45.306;20.448;2022-12-18T11:24:49;179.30;2252.80
57030;DHT22;42920;45.306;20.448;2022-12-18T11:27:18;154.50;2252.80
57030;DHT22;42920;45.306;20.448;2022-12-18T11:29:44;179.30;2252.80
57030;DHT22;42920;45.306;20.448;2022-12-18T11:35:12;179.40;2252.80
57030;DHT22;42920;45.306;20.448;2022-12-18T11:37:43;179.20;2252.80
57030;DHT22;42920;45.306;20.448;2022-12-18T11:40:19;179.20;2252.80
57030;DHT22;42920;45.306;20.448;2022-12-18T11:42:55;179.20;2252.80
57030;DHT22;42920;45.306;20.448;2022-12-18T11:45:29;179.20;2252.80
57030;DHT22;42920;45.306;20.448;2022-12-18T11:48:01;179.20;2252.80
57030;DHT22;42920;45.306;20.448;2022-12-18T11:50:51;154.20;2252.80
57030;DHT22;42920;45.306;20.448;2022-12-18T11:53:17;154.10;2252.80
57030;DHT22;42920;45.306;20.448;2022-12-18T11:58:37;153.90;2252.80
57030;DHT22;42920;45.306;20.448;2022-12-18T12:23:54;154.30;2252.80
57030;DHT22;42920;45.306;20.448;2022-12-18T12:34:23;154.10;2252.80
57030;DHT22;42920;45.306;20.448;2022-12-18T12:39:49;154.00;2252.80
57030;DHT22;42920;45.306;20.448;2022-12-18T12:42:33;153.90;2252.80
57030;DHT22;42920;45.306;20.448;2022-12-18T12:45:28;153.80;2252.80
57030;DHT22;42920;45.306;20.448;2022-12-18T12:47:56;153.80;2252.80
57030;DHT22;42920;45.306;20.448;2022-12-18T12:50:23;153.70;2252.80
57030;DHT22;42920;45.306;20.448;2022-12-18T12:52:55;153.70;2252.80
57030;DHT22;42920;45.306;20.448;2022-12-18T12:55:24;128.90;2252.80
57030;DHT22;42920;45.306;20.448;2022-12-18T13:03:37;128.80;2252.80
57030;DHT22;42920;45.306;20.448;2022-12-18T13:06:43;128.70;2252.80
57030;DHT22;42920;45.306;20.448;2022-12-18T13:09:10;128.80;2252.80
57030;DHT22;42920;45.306;20.448;2022-12-18T13:11:42;128.90;2252.80
57030;DHT22;42920;45.306;20.448;2022-12-18T13:14:36;128.80;2252.80
57030;DHT22;42920;45.306;20.448;2022-12-18T13:20:11;128.80;2252.80
57030;DHT22;42920;45.306;20.448;2022-12-18T13:22:48;128.80;2252.80
57030;DHT22;42920;45.306;20.448;2022-12-18T13:25:35;128.80;2252.80
57030;DHT22;42920;45.306;20.448;2022-12-18T13:28:07;128.70;2252.80
57030;DHT22;42920;45.306;20.448;2022-12-18T13:38:37;128.80;2252.80
57030;DHT22;42920;45.306;20.448;2022-12-18T13:43:49;128.50;2252.80
57030;DHT22;42920;45.306;20.448;2022-12-18T13:49:03;128.70;2252.80
57030;DHT22;42920;45.306;20.448;2022-12-18T13:51:33;153.60;2252.80
57030;DHT22;42920;45.306;20.448;2022-12-18T13:54:00;128.90;2252.80
57030;DHT22;42920;45.306;20.448;2022-12-18T13:56:31;128.70;2252.80
57030;DHT22;42920;45.306;20.448;2022-12-18T13:59:17;128.70;2252.80
57030;DHT22;42920;45.306;20.448;2022-12-18T14:01:52;128.60;2252.80
57030;DHT22;42920;45.306;20.448;2022-12-18T14:04:21;128.60;2252.80
57030;DHT22;42920;45.306;20.448;2022-12-18T14:06:50;128.50;2252.80
57030;DHT22;42920;45.306;20.448;2022-12-18T14:09:21;128.40;2252.80
57030;DHT22;42920;45.306;20.448;2022-12-18T14:11:50;128.50;2252.80
57030;DHT22;42920;45.306;20.448;2022-12-18T14:14:18;128.60;2252.80
57030;DHT22;42920;45.306;20.448;2022-12-18T14:16:45;128.60;2252.80
57030;DHT22;42920;45.306;20.448;2022-12-18T14:19:17;128.70;2252.80
57030;DHT22;42920;45.306;20.448;2022-12-18T14:21:48;128.50;2252.80
57030;DHT22;42920;45.306;20.448;2022-12-18T14:24:21;128.40;2252.80
57030;DHT22;42920;45.306;20.448;2022-12-18T14:26:50;128.40;2252.80
57030;DHT22;42920;45.306;20.448;2022-12-18T14:29:24;128.60;2252.80
57030;DHT22;42920;45.306;20.448;2022-12-18T14:32:12;128.30;2252.80
57030;DHT22;42920;45.306;20.448;2022-12-18T14:34:46;128.50;2252.80
57030;DHT22;42920;45.306;20.448;2022-12-18T14:37:15;128.30;2252.80
57030;DHT22;42920;45.306;20.448;2022-12-18T14:39:52;128.40;2252.80
57030;DHT22;42920;45.306;20.448;2022-12-18T14:42:18;128.60;2252.80
57030;DHT22;42920;45.306;20.448;2022-12-18T14:44:43;128.70;2252.80
57030;DHT22;42920;45.306;20.448;2022-12-18T14:47:14;128.70;2252.80
57030;DHT22;42920;45.306;20.448;2022-12-18T14:49:41;128.70;2252.80
57030;DHT22;42920;45.306;20.448;2022-12-18T14:52:34;128.50;2252.80
57030;DHT22;42920;45.306;20.448;2022-12-18T14:55:00;128.50;2252.80
57030;DHT22;42920;45.306;20.448;2022-12-18T14:57:25;128.60;2252.80
57030;DHT22;42920;45.306;20.448;2022-12-18T15:00:05;128.40;2252.80
57030;DHT22;42920;45.306;20.448;2022-12-18T15:02:31;128.40;2252.80
57030;DHT22;42920;45.306;20.448;2022-12-18T15:05:27;128.40;2252.80
57030;DHT22;42920;45.306;20.448;2022-12-18T15:07:55;103.30;2227.20
57030;DHT22;42920;45.306;20.448;2022-12-18T15:10:34;103.20;2227.20
57030;DHT22;42920;45.306;20.448;2022-12-18T15:20:53;103.10;2227.20
57030;DHT22;42920;45.306;20.448;2022-12-18T15:23:24;103.10;2227.20
57030;DHT22;42920;45.306;20.448;2022-12-18T15:26:04;102.90;2227.20
57030;DHT22;42920;45.306;20.448;2022-12-18T15:28:43;102.90;2227.20
57030;DHT22;42920;45.306;20.448;2022-12-18T15:33:36;103.20;2227.20
57030;DHT22;42920;45.306;20.448;2022-12-18T15:36:10;128.00;2252.80
57030;DHT22;42920;45.306;20.448;2022-12-18T15:38:36;128.10;2252.80
57030;DHT22;42920;45.306;20.448;2022-12-18T15:41:02;128.30;2252.80
57030;DHT22;42920;45.306;20.448;2022-12-18T15:43:28;128.20;2252.80
57030;DHT22;42920;45.306;20.448;2022-12-18T15:46:04;128.10;2252.80
57030;DHT22;42920;45.306;20.448;2022-12-18T15:48:35;128.00;2252.80
57030;DHT22;42920;45.306;20.448;2022-12-18T15:51:05;103.10;2227.20
57030;DHT22;42920;45.306;20.448;2022-12-18T15:53:34;103.20;2227.20
57030;DHT22;42920;45.306;20.448;2022-12-18T15:55:59;103.30;2227.20
57030;DHT22;42920;45.306;20.448;2022-12-18T15:58:44;103.20;2227.20
57030;DHT22;42920;45.306;20.448;2022-12-18T16:01:09;103.30;2227.20
57030;DHT22;42920;45.306;20.448;2022-12-18T16:03:36;103.30;2227.20
57030;DHT22;42920;45.306;20.448;2022-12-18T16:06:01;128.00;2252.80
57030;DHT22;42920;45.306;20.448;2022-12-18T16:08:31;103.10;2227.20
57030;DHT22;42920;45.306;20.448;2022-12-18T16:10:58;103.10;2227.20
57030;DHT22;42920;45.306;20.448;2022-12-18T16:13:23;103.00;2227.20
57030;DHT22;42920;45.306;20.448;2022-12-18T16:15:49;103.00;2227.20
57030;DHT22;42920;45.306;20.448;2022-12-18T16:18:15;102.80;2227.20
57030;DHT22;42920;45.306;20.448;2022-12-18T16:20:40;103.00;2227.20
57030;DHT22;42920;45.306;20.448;2022-12-18T16:23:06;103.20;2227.20
57030;DHT22;42920;45.306;20.448;2022-12-18T16:25:32;103.20;2227.20
57030;DHT22;42920;45.306;20.448;2022-12-18T16:27:58;103.30;2227.20
57030;DHT22;42920;45.306;20.448;2022-12-18T16:30:24;103.20;2227.20
57030;DHT22;42920;45.306;20.448;2022-12-18T16:32:53;103.30;2227.20
57030;DHT22;42920;45.306;20.448;2022-12-18T16:35:19;103.30;2227.20
57030;DHT22;42920;45.306;20.448;2022-12-18T16:37:44;128.00;2252.80
57030;DHT22;42920;45.306;20.448;2022-12-18T16:40:13;128.00;2252.80
57030;DHT22;42920;45.306;20.448;2022-12-18T16:42:41;128.00;2252.80